createdAt,value
2018-06-27T00:00:53.005Z,5.62
2018-06-27T00:01:56.333Z,4.80
2018-06-27T00:02:59.954Z,6.10
2018-06-27T00:04:03.430Z,5.50
2018-06-27T00:05:06.898Z,4.90
2018-06-27T00:06:10.313Z,4.87
2018-06-27T00:07:13.671Z,5.20
2018-06-27T00:08:17.042Z,5.40
2018-06-27T00:09:20.540Z,5.62
2018-06-27T00:10:23.951Z,4.70
2018-06-27T00:11:27.363Z,5.43
2018-06-27T00:12:30.874Z,5.37
2018-06-27T00:13:34.317Z,4.90
2018-06-27T00:14:37.851Z,5.33
2018-06-27T00:15:41.253Z,5.15
2018-06-27T00:16:44.765Z,4.62
2018-06-27T00:17:48.146Z,5.70
2018-06-27T00:18:51.475Z,5.50
2018-06-27T00:19:55.068Z,5.03
2018-06-27T00:20:58.526Z,5.78
2018-06-27T00:22:02.045Z,5.20
2018-06-27T00:23:05.554Z,5.13
2018-06-27T00:24:08.893Z,5.40
2018-06-27T00:25:12.533Z,4.80
2018-06-27T00:26:15.861Z,4.55
2018-06-27T00:27:19.262Z,5.10
2018-06-27T00:28:22.669Z,4.90
2018-06-27T00:29:25.998Z,5.27
2018-06-27T00:30:29.569Z,5.33
2018-06-27T00:31:33.170Z,6.30
2018-06-27T00:32:36.639Z,4.47
2018-06-27T00:33:40.115Z,4.95
2018-06-27T00:34:43.554Z,5.05
2018-06-27T00:35:47.030Z,4.22
2018-06-27T00:36:50.346Z,5.55
2018-06-27T00:37:54.071Z,4.97
2018-06-27T00:38:57.432Z,5.42
2018-06-27T00:40:00.913Z,5.00
2018-06-27T00:41:04.370Z,4.67
2018-06-27T00:42:07.918Z,5.50
2018-06-27T00:43:11.987Z,5.25
2018-06-27T00:44:15.457Z,5.60
2018-06-27T00:45:18.816Z,4.58
2018-06-27T00:46:22.152Z,4.62
2018-06-27T00:47:25.521Z,5.25
2018-06-27T00:48:28.850Z,5.33
2018-06-27T00:49:32.313Z,5.80
2018-06-27T00:50:35.712Z,5.80
2018-06-27T00:51:39.262Z,4.55
2018-06-27T00:52:42.746Z,5.15
2018-06-27T00:53:51.600Z,4.90
2018-06-27T00:54:55.097Z,6.20
2018-06-27T00:55:58.467Z,4.70
2018-06-27T00:57:01.805Z,4.97
2018-06-27T00:58:05.488Z,5.67
2018-06-27T00:59:09.281Z,5.25
2018-06-27T01:00:12.674Z,5.20
2018-06-27T01:01:16.029Z,5.20
2018-06-27T01:02:19.490Z,5.10
2018-06-27T01:03:22.845Z,4.40
2018-06-27T01:04:26.148Z,5.30
2018-06-27T01:05:29.881Z,4.95
2018-06-27T01:06:33.229Z,5.60
2018-06-27T01:07:36.554Z,4.75
2018-06-27T01:08:40.245Z,5.22
2018-06-27T01:09:43.692Z,6.65
2018-06-27T01:10:47.097Z,6.10
2018-06-27T01:11:50.565Z,6.85
2018-06-27T01:12:53.873Z,6.80
2018-06-27T01:13:57.206Z,6.67
2018-06-27T01:15:00.610Z,6.53
2018-06-27T01:16:04.092Z,5.50
2018-06-27T01:17:07.526Z,6.17
2018-06-27T01:18:10.900Z,6.15
2018-06-27T01:19:14.485Z,7.23
2018-06-27T01:20:17.868Z,5.42
2018-06-27T01:21:21.198Z,5.95
2018-06-27T01:22:24.572Z,6.43
2018-06-27T01:23:27.881Z,5.63
2018-06-27T01:24:31.203Z,6.12
2018-06-27T01:25:34.590Z,6.85
2018-06-27T01:26:37.978Z,6.58
2018-06-27T01:27:41.340Z,5.23
2018-06-27T01:28:44.729Z,5.70
2018-06-27T01:29:48.241Z,5.37
2018-06-27T01:30:51.752Z,5.90
2018-06-27T01:31:55.270Z,5.43
2018-06-27T01:32:58.740Z,6.30
2018-06-27T01:34:02.217Z,6.00
2018-06-27T01:35:05.613Z,5.67
2018-06-27T01:36:09.001Z,5.07
2018-06-27T01:37:12.390Z,6.35
2018-06-27T01:38:15.879Z,5.30
2018-06-27T01:39:19.226Z,5.00
2018-06-27T01:40:22.650Z,5.33
2018-06-27T01:41:25.985Z,4.47
2018-06-27T01:42:29.429Z,5.87
2018-06-27T01:43:32.860Z,4.33
2018-06-27T01:44:36.200Z,5.93
2018-06-27T01:45:39.521Z,5.70
2018-06-27T01:46:43.184Z,5.80
2018-06-27T01:47:46.528Z,5.03
2018-06-27T01:48:49.917Z,5.47
2018-06-27T01:49:53.408Z,5.67
2018-06-27T01:50:56.910Z,4.90
2018-06-27T01:52:00.397Z,5.00
2018-06-27T01:53:03.837Z,5.25
2018-06-27T01:54:07.181Z,5.75
2018-06-27T01:55:10.661Z,5.53
2018-06-27T01:56:14.037Z,5.92
2018-06-27T01:57:17.481Z,6.08
2018-06-27T01:58:20.789Z,4.85
2018-06-27T01:59:24.138Z,5.00
2018-06-27T02:00:27.541Z,4.75
2018-06-27T02:01:31.012Z,6.05
2018-06-27T02:02:34.753Z,5.55
2018-06-27T02:03:38.173Z,5.30
2018-06-27T02:04:41.594Z,4.78
2018-06-27T02:05:44.967Z,5.00
2018-06-27T02:06:48.365Z,4.70
2018-06-27T02:07:51.711Z,5.00
2018-06-27T02:08:55.061Z,5.25
2018-06-27T02:09:58.468Z,5.75
2018-06-27T02:11:01.829Z,5.22
2018-06-27T02:12:05.209Z,5.33
2018-06-27T02:13:09.189Z,5.33
2018-06-27T02:14:12.584Z,5.50
2018-06-27T02:15:16.064Z,5.20
2018-06-27T02:16:19.545Z,5.92
2018-06-27T02:17:22.882Z,5.70
2018-06-27T02:18:26.329Z,5.58
2018-06-27T02:19:29.752Z,6.30
2018-06-27T02:20:33.194Z,5.40
2018-06-27T02:21:36.596Z,6.00
2018-06-27T02:22:39.945Z,5.30
2018-06-27T02:23:43.463Z,5.65
2018-06-27T02:24:46.844Z,4.97
2018-06-27T02:25:50.364Z,4.72
2018-06-27T02:26:53.668Z,5.12
2018-06-27T02:27:57.089Z,5.60
2018-06-27T02:29:00.536Z,5.22
2018-06-27T02:30:04.177Z,5.30
2018-06-27T02:31:07.705Z,5.28
2018-06-27T02:32:11.282Z,4.47
2018-06-27T02:33:20.266Z,5.55
2018-06-27T02:34:23.648Z,4.83
2018-06-27T02:35:27.164Z,5.22
2018-06-27T02:36:30.542Z,4.92
2018-06-27T02:37:33.924Z,5.12
2018-06-27T02:38:37.424Z,5.40
2018-06-27T02:39:40.836Z,5.70
2018-06-27T02:40:44.397Z,5.25
2018-06-27T02:41:47.467Z,5.70
2018-06-27T02:42:50.975Z,5.37
2018-06-27T02:43:54.784Z,5.17
2018-06-27T02:44:58.160Z,4.60
2018-06-27T02:46:01.533Z,5.08
2018-06-27T02:47:05.233Z,5.53
2018-06-27T02:48:08.828Z,4.83
2018-06-27T02:49:11.909Z,5.30
2018-06-27T02:50:14.972Z,5.35
2018-06-27T02:51:18.296Z,5.47
2018-06-27T02:52:21.679Z,4.65
2018-06-27T02:53:24.995Z,4.60
2018-06-27T02:54:28.372Z,4.95
2018-06-27T02:55:31.749Z,5.40
2018-06-27T02:56:35.159Z,5.65
2018-06-27T02:57:38.733Z,4.87
2018-06-27T02:58:42.069Z,5.00
2018-06-27T02:59:45.481Z,4.70
2018-06-27T03:00:48.872Z,4.60
2018-06-27T03:01:52.404Z,4.45
2018-06-27T03:02:55.833Z,4.97
2018-06-27T03:03:59.472Z,4.47
2018-06-27T03:05:03.029Z,4.95
2018-06-27T03:06:06.620Z,4.90
2018-06-27T03:07:10.090Z,4.92
2018-06-27T03:08:13.432Z,5.03
2018-06-27T03:09:17.000Z,5.00
2018-06-27T03:10:20.379Z,5.15
2018-06-27T03:11:23.843Z,4.80
2018-06-27T03:12:27.317Z,4.70
2018-06-27T03:13:30.700Z,4.87
2018-06-27T03:14:34.145Z,4.58
2018-06-27T03:15:37.601Z,4.95
2018-06-27T03:16:41.234Z,5.08
2018-06-27T03:17:45.300Z,4.97
2018-06-27T03:18:57.968Z,4.60
2018-06-27T03:20:01.018Z,4.45
2018-06-27T03:21:04.630Z,4.30
2018-06-27T03:22:08.038Z,4.60
2018-06-27T03:23:11.410Z,4.65
2018-06-27T03:24:14.805Z,5.28
2018-06-27T03:25:18.133Z,4.50
2018-06-27T03:26:21.474Z,4.83
2018-06-27T03:27:24.859Z,4.12
2018-06-27T03:28:28.208Z,5.28
2018-06-27T03:29:31.660Z,5.08
2018-06-27T03:30:35.123Z,4.22
2018-06-27T03:31:38.641Z,4.40
2018-06-27T03:32:41.996Z,4.25
2018-06-27T03:33:45.452Z,4.47
2018-06-27T03:34:48.801Z,5.35
2018-06-27T03:35:52.145Z,4.05
2018-06-27T03:36:55.468Z,4.00
2018-06-27T03:37:58.876Z,5.00
2018-06-27T03:39:02.506Z,4.97
2018-06-27T03:40:06.281Z,3.50
2018-06-27T03:41:09.676Z,4.37
2018-06-27T03:42:13.209Z,4.55
2018-06-27T03:43:16.660Z,4.22
2018-06-27T03:44:20.075Z,3.75
2018-06-27T03:45:23.466Z,4.83
2018-06-27T03:46:26.769Z,4.28
2018-06-27T03:47:30.170Z,4.78
2018-06-27T03:48:33.592Z,4.78
2018-06-27T03:49:37.016Z,4.65
2018-06-27T03:50:41.401Z,4.10
2018-06-27T03:51:44.765Z,4.28
2018-06-27T03:52:49.023Z,4.58
2018-06-27T03:53:57.485Z,4.20
2018-06-27T03:55:00.879Z,3.65
2018-06-27T03:56:04.408Z,4.10
2018-06-27T03:57:08.210Z,3.83
2018-06-27T03:58:11.640Z,5.60
2018-06-27T03:59:15.141Z,5.60
2018-06-27T04:00:18.652Z,6.22
2018-06-27T04:01:21.969Z,6.17
2018-06-27T04:02:25.610Z,7.35
2018-06-27T04:03:29.006Z,6.05
2018-06-27T04:04:32.309Z,6.00
2018-06-27T04:05:35.724Z,4.97
2018-06-27T04:06:39.073Z,5.37
2018-06-27T04:07:42.681Z,6.28
2018-06-27T04:08:46.146Z,3.75
2018-06-27T04:09:49.646Z,4.53
2018-06-27T04:10:52.989Z,4.95
2018-06-27T04:11:56.326Z,4.10
2018-06-27T04:12:59.979Z,4.25
2018-06-27T04:14:03.257Z,4.30
2018-06-27T04:15:06.581Z,5.20
2018-06-27T04:16:10.061Z,5.10
2018-06-27T04:17:13.494Z,3.67
2018-06-27T04:18:16.885Z,4.05
2018-06-27T04:19:20.420Z,4.25
2018-06-27T04:20:23.899Z,4.28
2018-06-27T04:21:27.278Z,4.20
2018-06-27T04:22:35.676Z,3.58
2018-06-27T04:23:39.077Z,3.65
2018-06-27T04:24:42.636Z,4.10
2018-06-27T04:25:46.072Z,5.87
2018-06-27T04:26:49.421Z,4.15
2018-06-27T04:27:53.126Z,5.12
2018-06-27T04:28:56.464Z,4.22
2018-06-27T04:30:01.184Z,4.72
2018-06-27T04:31:04.638Z,4.00
2018-06-27T04:32:08.117Z,4.10
2018-06-27T04:33:11.708Z,4.60
2018-06-27T04:34:15.112Z,3.70
2018-06-27T04:35:18.481Z,3.77
2018-06-27T04:36:21.912Z,4.67
2018-06-27T04:37:25.648Z,4.10
2018-06-27T04:38:28.978Z,3.75
2018-06-27T04:39:32.397Z,4.45
2018-06-27T04:40:35.744Z,4.37
2018-06-27T04:41:39.840Z,3.77
2018-06-27T04:42:43.310Z,4.80
2018-06-27T04:43:46.891Z,5.12
2018-06-27T04:44:50.478Z,3.90
2018-06-27T04:45:54.071Z,4.42
2018-06-27T04:46:57.428Z,4.60
2018-06-27T04:48:00.780Z,4.53
2018-06-27T04:49:04.509Z,4.60
2018-06-27T04:50:07.858Z,4.60
2018-06-27T04:51:11.284Z,4.00
2018-06-27T04:52:14.768Z,4.58
2018-06-27T04:53:18.255Z,4.25
2018-06-27T04:54:21.640Z,4.17
2018-06-27T04:55:25.013Z,3.75
2018-06-27T04:56:28.353Z,4.20
2018-06-27T04:57:31.776Z,5.12
2018-06-27T04:58:35.200Z,4.40
2018-06-27T04:59:38.562Z,3.90
2018-06-27T05:00:41.926Z,4.03
2018-06-27T05:01:45.508Z,3.77
2018-06-27T05:02:48.859Z,4.03
2018-06-27T05:03:52.337Z,3.95
2018-06-27T05:04:55.690Z,4.22
2018-06-27T05:05:59.021Z,3.87
2018-06-27T05:07:02.354Z,3.72
2018-06-27T05:08:05.742Z,4.22
2018-06-27T05:09:10.511Z,4.10
2018-06-27T05:10:13.856Z,3.80
2018-06-27T05:11:17.330Z,3.70
2018-06-27T05:12:20.818Z,3.47
2018-06-27T05:13:24.332Z,4.22
2018-06-27T05:14:27.760Z,4.20
2018-06-27T05:15:31.167Z,4.25
2018-06-27T05:16:34.727Z,4.85
2018-06-27T05:17:38.065Z,4.05
2018-06-27T05:18:41.525Z,4.10
2018-06-27T05:19:44.983Z,4.42
2018-06-27T05:20:48.593Z,4.10
2018-06-27T05:21:51.927Z,4.00
2018-06-27T05:22:55.576Z,4.35
2018-06-27T05:23:58.944Z,4.60
2018-06-27T05:25:02.408Z,4.72
2018-06-27T05:26:05.706Z,4.15
2018-06-27T05:27:09.129Z,3.40
2018-06-27T05:28:12.869Z,4.05
2018-06-27T05:29:16.225Z,4.97
2018-06-27T05:30:19.623Z,3.72
2018-06-27T05:31:23.066Z,3.87
2018-06-27T05:32:26.582Z,4.40
2018-06-27T05:33:30.095Z,4.60
2018-06-27T05:34:33.441Z,5.33
2018-06-27T05:35:36.768Z,5.80
2018-06-27T05:36:40.085Z,4.75
2018-06-27T05:37:43.760Z,3.80
2018-06-27T05:38:47.446Z,3.85
2018-06-27T05:39:50.912Z,3.83
2018-06-27T05:40:54.339Z,4.67
2018-06-27T05:41:57.772Z,4.40
2018-06-27T05:43:01.096Z,4.70
2018-06-27T05:44:04.672Z,3.92
2018-06-27T05:45:08.022Z,4.12
2018-06-27T05:46:11.357Z,4.40
2018-06-27T05:47:14.741Z,4.72
2018-06-27T05:48:18.411Z,4.35
2018-06-27T05:49:21.879Z,4.08
2018-06-27T05:50:25.632Z,4.92
2018-06-27T05:51:29.126Z,4.70
2018-06-27T05:52:32.565Z,4.10
2018-06-27T05:53:35.610Z,3.58
2018-06-27T05:54:39.097Z,3.60
2018-06-27T05:55:42.493Z,3.90
2018-06-27T05:56:45.827Z,3.60
2018-06-27T05:57:49.157Z,3.65
2018-06-27T05:58:52.596Z,3.92
2018-06-27T05:59:55.950Z,3.62
2018-06-27T06:00:59.401Z,4.75
2018-06-27T06:02:02.898Z,3.83
2018-06-27T06:03:06.216Z,4.30
2018-06-27T06:04:09.641Z,3.65
2018-06-27T06:05:13.219Z,3.55
2018-06-27T06:06:16.544Z,3.77
2018-06-27T06:07:19.975Z,3.52
2018-06-27T06:08:23.349Z,3.40
2018-06-27T06:09:27.187Z,4.05
2018-06-27T06:10:30.905Z,4.42
2018-06-27T06:11:34.494Z,3.60
2018-06-27T06:12:37.880Z,3.75
2018-06-27T06:13:41.217Z,3.47
2018-06-27T06:14:44.917Z,3.90
2018-06-27T06:15:48.600Z,4.28
2018-06-27T06:16:55.804Z,3.70
2018-06-27T06:18:10.306Z,3.80
2018-06-27T06:19:13.991Z,3.75
2018-06-27T06:20:17.350Z,3.62
2018-06-27T06:21:20.715Z,3.45
2018-06-27T06:22:24.174Z,3.65
2018-06-27T06:23:27.681Z,3.05
2018-06-27T06:24:36.279Z,3.40
2018-06-27T06:25:39.970Z,3.60
2018-06-27T06:26:43.337Z,3.70
2018-06-27T06:27:46.812Z,3.92
2018-06-27T06:28:50.268Z,4.12
2018-06-27T06:29:53.816Z,3.62
2018-06-27T06:30:57.302Z,3.75
2018-06-27T06:32:00.721Z,3.35
2018-06-27T06:33:04.272Z,3.80
2018-06-27T06:34:07.700Z,3.62
2018-06-27T06:35:11.297Z,4.45
2018-06-27T06:36:14.737Z,4.60
2018-06-27T06:37:18.545Z,3.87
2018-06-27T06:38:22.024Z,3.80
2018-06-27T06:39:25.725Z,3.50
2018-06-27T06:40:29.400Z,3.92
2018-06-27T06:41:32.802Z,3.30
2018-06-27T06:42:35.812Z,3.58
2018-06-27T06:43:39.362Z,3.80
2018-06-27T06:44:42.797Z,4.05
2018-06-27T06:45:46.148Z,3.65
2018-06-27T06:46:49.917Z,3.67
2018-06-27T06:47:53.293Z,4.15
2018-06-27T06:48:56.950Z,3.70
2018-06-27T06:50:00.508Z,4.08
2018-06-27T06:51:04.046Z,3.30
2018-06-27T06:52:07.445Z,3.83
2018-06-27T06:53:10.748Z,3.10
2018-06-27T06:54:14.115Z,3.42
2018-06-27T06:55:17.616Z,3.62
2018-06-27T06:56:21.245Z,3.10
2018-06-27T06:57:24.590Z,3.10
2018-06-27T06:58:27.979Z,3.10
2018-06-27T06:59:31.398Z,3.47
2018-06-27T07:00:34.759Z,3.75
2018-06-27T07:01:37.893Z,3.35
2018-06-27T07:02:41.308Z,3.35
2018-06-27T07:03:44.816Z,3.22
2018-06-27T07:04:48.367Z,3.10
2018-06-27T07:05:51.798Z,3.15
2018-06-27T07:06:55.149Z,3.45
2018-06-27T07:07:58.673Z,3.27
2018-06-27T07:09:02.208Z,3.52
2018-06-27T07:10:05.601Z,3.65
2018-06-27T07:11:09.184Z,3.60
2018-06-27T07:12:12.653Z,3.65
2018-06-27T07:13:16.598Z,3.87
2018-06-27T07:14:19.948Z,2.98
2018-06-27T07:15:23.554Z,3.17
2018-06-27T07:16:26.909Z,3.40
2018-06-27T07:17:30.329Z,3.47
2018-06-27T07:18:33.925Z,3.12
2018-06-27T07:19:37.297Z,4.12
2018-06-27T07:20:40.662Z,3.80
2018-06-27T07:21:44.029Z,3.90
2018-06-27T07:22:47.436Z,3.30
2018-06-27T07:23:50.758Z,3.47
2018-06-27T07:24:54.212Z,3.30
2018-06-27T07:25:57.665Z,3.98
2018-06-27T07:27:01.221Z,3.33
2018-06-27T07:28:04.628Z,2.85
2018-06-27T07:29:08.207Z,3.50
2018-06-27T07:30:11.677Z,3.00
2018-06-27T07:31:15.125Z,3.77
2018-06-27T07:32:19.200Z,4.35
2018-06-27T07:33:22.645Z,3.70
2018-06-27T07:34:26.038Z,3.20
2018-06-27T07:35:29.487Z,2.87
2018-06-27T07:36:32.953Z,2.85
2018-06-27T07:37:36.378Z,3.52
2018-06-27T07:38:40.070Z,3.60
2018-06-27T07:39:43.421Z,4.00
2018-06-27T07:40:46.941Z,3.30
2018-06-27T07:41:50.433Z,3.15
2018-06-27T07:42:54.026Z,3.15
2018-06-27T07:43:57.614Z,3.47
2018-06-27T07:45:00.949Z,3.10
2018-06-27T07:46:04.502Z,3.77
2018-06-27T07:47:08.252Z,2.90
2018-06-27T07:48:11.681Z,3.30
2018-06-27T07:49:15.228Z,4.20
2018-06-27T07:50:18.785Z,3.90
2018-06-27T07:51:22.096Z,3.08
2018-06-27T07:52:25.421Z,3.55
2018-06-27T07:53:28.980Z,2.67
2018-06-27T07:54:40.168Z,3.60
2018-06-27T07:55:43.621Z,2.98
2018-06-27T07:56:46.956Z,3.67
2018-06-27T07:57:50.288Z,3.15
2018-06-27T07:58:53.697Z,3.98
2018-06-27T07:59:57.072Z,3.30
2018-06-27T08:01:00.441Z,3.02
2018-06-27T08:02:04.187Z,3.12
2018-06-27T08:03:07.698Z,2.77
2018-06-27T08:04:11.350Z,2.92
2018-06-27T08:05:14.853Z,3.12
2018-06-27T08:06:18.316Z,3.12
2018-06-27T08:07:21.732Z,4.25
2018-06-27T08:08:25.096Z,2.83
2018-06-27T08:09:28.559Z,3.15
2018-06-27T08:10:31.627Z,3.30
2018-06-27T08:11:35.074Z,3.00
2018-06-27T08:12:38.729Z,3.15
2018-06-27T08:13:42.066Z,3.00
2018-06-27T08:14:45.459Z,3.33
2018-06-27T08:15:49.023Z,3.20
2018-06-27T08:16:52.384Z,2.50
2018-06-27T08:17:55.901Z,3.60
2018-06-27T08:18:59.134Z,3.10
2018-06-27T08:20:02.192Z,3.50
2018-06-27T08:21:05.545Z,3.05
2018-06-27T08:22:09.255Z,3.52
2018-06-27T08:23:12.909Z,2.80
2018-06-27T08:24:16.331Z,3.00
2018-06-27T08:25:19.910Z,3.77
2018-06-27T08:26:23.581Z,3.17
2018-06-27T08:27:26.794Z,3.22
2018-06-27T08:28:30.155Z,3.40
2018-06-27T08:29:33.753Z,2.92
2018-06-27T08:30:37.189Z,2.70
2018-06-27T08:31:40.632Z,2.98
2018-06-27T08:32:44.145Z,3.33
2018-06-27T08:33:47.568Z,3.02
2018-06-27T08:34:51.032Z,3.05
2018-06-27T08:35:54.520Z,3.40
2018-06-27T08:36:58.033Z,3.27
2018-06-27T08:38:01.420Z,3.80
2018-06-27T08:39:07.813Z,3.27
2018-06-27T08:40:11.292Z,3.50
2018-06-27T08:41:14.982Z,3.50
2018-06-27T08:42:18.605Z,4.90
2018-06-27T08:43:22.004Z,5.10
2018-06-27T08:44:25.502Z,4.85
2018-06-27T08:45:28.853Z,4.22
2018-06-27T08:46:32.245Z,4.25
2018-06-27T08:47:35.653Z,4.00
2018-06-27T08:48:39.129Z,4.40
2018-06-27T08:49:42.552Z,3.40
2018-06-27T08:50:45.882Z,3.87
2018-06-27T08:51:49.480Z,3.77
2018-06-27T08:52:52.921Z,3.50
2018-06-27T08:53:56.431Z,3.00
2018-06-27T08:54:59.943Z,4.45
2018-06-27T08:56:03.321Z,3.40
2018-06-27T08:57:06.669Z,3.33
2018-06-27T08:58:10.053Z,3.98
2018-06-27T08:59:13.438Z,3.55
2018-06-27T09:00:16.778Z,3.80
2018-06-27T09:01:20.561Z,2.77
2018-06-27T09:02:24.081Z,3.30
2018-06-27T09:03:27.513Z,3.12
2018-06-27T09:04:31.059Z,3.83
2018-06-27T09:05:34.536Z,3.37
2018-06-27T09:06:37.998Z,3.58
2018-06-27T09:07:41.377Z,3.20
2018-06-27T09:08:44.802Z,3.58
2018-06-27T09:09:48.242Z,4.55
2018-06-27T09:10:51.945Z,3.47
2018-06-27T09:11:55.347Z,4.10
2018-06-27T09:12:58.736Z,3.87
2018-06-27T09:14:02.314Z,3.62
2018-06-27T09:15:05.752Z,4.58
2018-06-27T09:16:09.092Z,3.22
2018-06-27T09:17:12.525Z,4.00
2018-06-27T09:18:15.648Z,3.58
2018-06-27T09:19:19.046Z,3.37
2018-06-27T09:20:22.511Z,3.85
2018-06-27T09:21:25.938Z,3.55
2018-06-27T09:22:29.677Z,3.87
2018-06-27T09:23:33.047Z,3.60
2018-06-27T09:24:36.388Z,3.58
2018-06-27T09:25:39.966Z,3.98
2018-06-27T09:26:43.375Z,3.60
2018-06-27T09:27:47.082Z,4.35
2018-06-27T09:28:50.946Z,3.62
2018-06-27T09:29:54.796Z,3.87
2018-06-27T09:30:58.321Z,3.42
2018-06-27T09:32:01.989Z,3.70
2018-06-27T09:33:05.671Z,3.60
2018-06-27T09:34:09.131Z,3.63
2018-06-27T09:35:12.505Z,4.25
2018-06-27T09:36:15.877Z,3.60
2018-06-27T09:37:19.321Z,6.15
2018-06-27T09:38:22.365Z,5.27
2018-06-27T09:39:25.838Z,7.00
2018-06-27T09:40:29.460Z,7.50
2018-06-27T09:41:32.836Z,5.10
2018-06-27T09:42:36.462Z,5.22
2018-06-27T09:43:39.921Z,4.67
2018-06-27T09:44:43.405Z,4.53
2018-06-27T09:45:46.967Z,4.95
2018-06-27T09:46:50.306Z,4.47
2018-06-27T09:47:53.809Z,4.00
2018-06-27T09:48:57.237Z,4.40
2018-06-27T09:50:00.876Z,5.28
2018-06-27T09:51:04.477Z,4.60
2018-06-27T09:52:07.848Z,4.17
2018-06-27T09:53:12.215Z,3.55
2018-06-27T09:54:15.604Z,4.33
2018-06-27T09:55:19.065Z,4.35
2018-06-27T09:56:23.049Z,4.35
2018-06-27T09:57:26.517Z,3.95
2018-06-27T09:58:29.974Z,3.83
2018-06-27T09:59:33.458Z,3.80
2018-06-27T10:00:40.343Z,4.50
2018-06-27T10:01:43.851Z,4.47
2018-06-27T10:02:47.790Z,4.37
2018-06-27T10:03:51.302Z,4.03
2018-06-27T10:04:54.765Z,3.87
2018-06-27T10:05:58.207Z,4.37
2018-06-27T10:07:01.634Z,3.87
2018-06-27T10:08:05.165Z,4.10
2018-06-27T10:09:09.618Z,4.27
2018-06-27T10:10:12.986Z,3.98
2018-06-27T10:11:16.314Z,3.87
2018-06-27T10:12:19.830Z,3.98
2018-06-27T10:13:23.231Z,4.00
2018-06-27T10:14:26.565Z,3.40
2018-06-27T10:15:30.020Z,4.07
2018-06-27T10:16:33.801Z,3.80
2018-06-27T10:17:37.189Z,3.95
2018-06-27T10:18:40.260Z,3.50
2018-06-27T10:19:43.835Z,5.10
2018-06-27T10:20:47.333Z,4.28
2018-06-27T10:21:50.922Z,4.25
2018-06-27T10:22:54.281Z,4.20
2018-06-27T10:23:57.607Z,5.08
2018-06-27T10:25:01.021Z,5.40
2018-06-27T10:26:04.620Z,4.00
2018-06-27T10:27:08.149Z,3.67
2018-06-27T10:28:11.701Z,4.00
2018-06-27T10:29:15.169Z,5.27
2018-06-27T10:30:18.589Z,4.00
2018-06-27T10:31:21.990Z,4.00
2018-06-27T10:32:25.320Z,4.00
2018-06-27T10:33:28.712Z,4.33
2018-06-27T10:34:32.053Z,3.17
2018-06-27T10:35:35.628Z,4.10
2018-06-27T10:36:39.545Z,5.07
2018-06-27T10:37:42.956Z,3.70
2018-06-27T10:38:46.333Z,4.90
2018-06-27T10:39:49.852Z,3.70
2018-06-27T10:40:52.896Z,3.97
2018-06-27T10:41:56.349Z,4.10
2018-06-27T10:42:59.777Z,3.30
2018-06-27T10:44:03.151Z,4.40
2018-06-27T10:45:06.580Z,3.90
2018-06-27T10:46:10.119Z,4.63
2018-06-27T10:47:13.678Z,3.87
2018-06-27T10:48:17.062Z,4.30
2018-06-27T10:49:20.446Z,3.83
2018-06-27T10:50:23.886Z,4.17
2018-06-27T10:51:27.360Z,3.70
2018-06-27T10:52:30.757Z,3.83
2018-06-27T10:53:34.169Z,3.90
2018-06-27T10:54:41.737Z,4.20
2018-06-27T10:55:45.208Z,4.90
2018-06-27T10:56:48.732Z,4.90
2018-06-27T10:57:52.389Z,4.60
2018-06-27T10:58:55.746Z,5.80
2018-06-27T10:59:59.181Z,4.93
2018-06-27T11:01:02.553Z,4.87
2018-06-27T11:02:05.901Z,4.70
2018-06-27T11:03:09.463Z,3.40
2018-06-27T11:04:12.999Z,5.23
2018-06-27T11:05:16.380Z,4.30
2018-06-27T11:06:20.058Z,4.30
2018-06-27T11:07:23.430Z,4.77
2018-06-27T11:08:26.780Z,4.00
2018-06-27T11:09:30.146Z,4.53
2018-06-27T11:10:33.635Z,5.40
2018-06-27T11:11:37.196Z,4.60
2018-06-27T11:12:40.576Z,3.63
2018-06-27T11:13:44.162Z,4.73
2018-06-27T11:14:47.727Z,4.37
2018-06-27T11:15:51.220Z,4.07
2018-06-27T11:16:55.037Z,4.20
2018-06-27T11:17:59.085Z,4.40
2018-06-27T11:19:02.451Z,4.40
2018-06-27T11:20:05.937Z,4.53
2018-06-27T11:21:09.349Z,5.08
2018-06-27T11:22:12.787Z,4.43
2018-06-27T11:23:16.323Z,3.93
2018-06-27T11:24:19.746Z,3.53
2018-06-27T11:25:23.151Z,3.63
2018-06-27T11:26:26.523Z,3.47
2018-06-27T11:27:29.984Z,4.63
2018-06-27T11:28:33.471Z,4.40
2018-06-27T11:29:36.805Z,4.10
2018-06-27T11:30:40.480Z,4.40
2018-06-27T11:31:43.993Z,4.23
2018-06-27T11:32:47.655Z,3.80
2018-06-27T11:33:50.983Z,3.53
2018-06-27T11:34:54.372Z,4.60
2018-06-27T11:35:58.048Z,4.10
2018-06-27T11:37:01.460Z,4.43
2018-06-27T11:38:05.342Z,4.60
2018-06-27T11:39:11.102Z,4.07
2018-06-27T11:40:14.894Z,3.87
2018-06-27T11:41:18.569Z,3.70
2018-06-27T11:42:22.139Z,3.90
2018-06-27T11:43:25.511Z,4.33
2018-06-27T11:44:29.884Z,3.77
2018-06-27T11:45:33.170Z,3.87
2018-06-27T11:46:37.259Z,3.30
2018-06-27T11:47:40.860Z,3.40
2018-06-27T11:48:44.419Z,3.60
2018-06-27T11:49:48.565Z,3.80
2018-06-27T11:50:52.173Z,3.37
2018-06-27T11:51:55.982Z,4.50
2018-06-27T11:52:59.542Z,3.53
2018-06-27T11:54:03.196Z,3.50
2018-06-27T11:55:12.277Z,3.83
2018-06-27T11:56:18.633Z,3.23
2018-06-27T11:57:22.283Z,2.87
2018-06-27T11:58:25.936Z,4.30
2018-06-27T11:59:30.011Z,2.87
2018-06-27T12:00:33.423Z,3.10
2018-06-27T12:01:36.855Z,3.17
2018-06-27T12:02:40.898Z,2.97
2018-06-27T12:03:44.499Z,3.07
2018-06-27T12:04:48.018Z,2.90
2018-06-27T12:05:51.446Z,2.90
2018-06-27T12:06:54.672Z,2.70
2018-06-27T12:07:58.433Z,2.73
2018-06-27T12:09:01.786Z,2.73
2018-06-27T12:10:05.505Z,2.90
2018-06-27T12:11:08.964Z,3.07
2018-06-27T12:12:12.356Z,2.87
2018-06-27T12:13:15.677Z,3.33
2018-06-27T12:14:19.041Z,3.10
2018-06-27T12:15:22.651Z,3.37
2018-06-27T12:16:27.056Z,3.83
2018-06-27T12:17:30.674Z,3.20
2018-06-27T12:18:35.308Z,2.85
2018-06-27T12:19:39.087Z,3.30
2018-06-27T12:20:42.532Z,3.03
2018-06-27T12:21:45.557Z,2.77
2018-06-27T12:22:48.987Z,2.30
2018-06-27T12:23:52.524Z,2.60
2018-06-27T12:24:56.592Z,2.03
2018-06-27T12:26:00.454Z,2.30
2018-06-27T12:27:06.088Z,2.93
2018-06-27T12:28:09.437Z,3.60
2018-06-27T12:29:13.539Z,2.27
2018-06-27T12:30:23.230Z,2.70
2018-06-27T12:31:26.941Z,3.17
2018-06-27T12:32:30.462Z,2.67
2018-06-27T12:33:34.114Z,2.60
2018-06-27T12:34:38.358Z,3.00
2018-06-27T12:35:42.038Z,2.43
2018-06-27T12:36:45.722Z,2.60
2018-06-27T12:37:49.773Z,2.17
2018-06-27T12:38:53.972Z,2.30
2018-06-27T12:39:58.943Z,2.33
2018-06-27T12:41:02.613Z,2.37
2018-06-27T12:42:06.739Z,2.43
2018-06-27T12:43:10.293Z,2.93
2018-06-27T12:44:13.932Z,2.70
2018-06-27T12:45:17.466Z,2.27
2018-06-27T12:46:20.938Z,3.50
2018-06-27T12:47:24.593Z,2.63
2018-06-27T12:48:28.812Z,2.20
2018-06-27T12:49:32.644Z,2.30
2018-06-27T12:50:36.213Z,2.43
2018-06-27T12:51:40.354Z,2.67
2018-06-27T12:52:43.682Z,2.30
2018-06-27T12:53:47.109Z,2.30
2018-06-27T12:54:54.161Z,2.00
2018-06-27T12:55:58.152Z,2.23
2018-06-27T12:57:01.635Z,2.60
2018-06-27T12:58:05.749Z,2.33
2018-06-27T12:59:09.495Z,2.50
2018-06-27T13:00:12.942Z,1.70
2018-06-27T13:01:16.573Z,2.40
2018-06-27T13:02:19.985Z,2.00
2018-06-27T13:03:23.663Z,2.70
2018-06-27T13:04:27.350Z,2.63
2018-06-27T13:05:31.283Z,1.50
2018-06-27T13:06:35.337Z,2.13
2018-06-27T13:07:39.183Z,2.00
2018-06-27T13:08:42.648Z,2.50
2018-06-27T13:09:46.011Z,1.73
2018-06-27T13:10:49.525Z,1.70
2018-06-27T13:11:52.898Z,2.00
2018-06-27T13:12:56.270Z,1.93
2018-06-27T13:13:59.933Z,1.97
2018-06-27T13:15:03.545Z,1.67
2018-06-27T13:16:07.354Z,1.77
2018-06-27T13:17:12.122Z,1.23
2018-06-27T13:18:15.581Z,2.07
2018-06-27T13:19:19.172Z,1.50
2018-06-27T13:20:22.915Z,1.60
2018-06-27T13:21:26.237Z,1.60
2018-06-27T13:22:30.189Z,1.80
2018-06-27T13:23:34.521Z,2.20
2018-06-27T13:24:37.977Z,1.60
2018-06-27T13:25:41.381Z,1.53
2018-06-27T13:26:44.845Z,1.60
2018-06-27T13:27:48.172Z,1.97
2018-06-27T13:28:51.495Z,1.67
2018-06-27T13:29:54.995Z,2.07
2018-06-27T13:30:58.333Z,1.60
2018-06-27T13:32:03.562Z,2.13
2018-06-27T13:33:07.316Z,1.90
2018-06-27T13:34:10.713Z,2.13
2018-06-27T13:35:14.282Z,1.73
2018-06-27T13:36:17.777Z,2.20
2018-06-27T13:37:21.408Z,1.53
2018-06-27T13:38:25.179Z,1.37
2018-06-27T13:39:28.646Z,1.87
2018-06-27T13:40:32.056Z,1.50
2018-06-27T13:41:36.917Z,2.00
2018-06-27T13:42:40.524Z,2.10
2018-06-27T13:43:44.838Z,1.73
2018-06-27T13:44:49.581Z,1.87
2018-06-27T13:45:53.109Z,1.80
2018-06-27T13:46:56.445Z,1.43
2018-06-27T13:47:59.971Z,2.27
2018-06-27T13:49:03.508Z,2.03
2018-06-27T13:50:07.163Z,1.50
2018-06-27T13:51:10.712Z,1.93
2018-06-27T13:52:14.110Z,2.83
2018-06-27T13:53:17.909Z,1.60
2018-06-27T13:54:21.306Z,2.10
2018-06-27T13:55:24.792Z,2.07
2018-06-27T13:56:28.141Z,1.60
2018-06-27T13:57:31.574Z,2.20
2018-06-27T13:58:35.129Z,1.47
2018-06-27T13:59:38.836Z,1.50
2018-06-27T14:00:42.247Z,1.50
2018-06-27T14:01:45.731Z,1.57
2018-06-27T14:02:49.127Z,1.43
2018-06-27T14:03:52.593Z,2.00
2018-06-27T14:04:56.160Z,2.67
2018-06-27T14:05:59.601Z,1.80
2018-06-27T14:07:03.035Z,1.80